createdAt,value
2023-03-28T00:01:43.714Z,0.60
2023-03-28T00:04:11.793Z,0.43
2023-03-28T00:06:41.555Z,0.50
2023-03-28T00:09:10.973Z,0.80
2023-03-28T00:11:40.703Z,0.22
2023-03-28T00:14:08.558Z,0.38
2023-03-28T00:16:39.317Z,0.50
2023-03-28T00:19:09.880Z,0.50
2023-03-28T00:21:41.443Z,0.40
2023-03-28T00:24:13.780Z,0.40
2023-03-28T00:26:44.495Z,0.63
2023-03-28T00:29:20.750Z,0.75
2023-03-28T00:31:50.493Z,0.70
2023-03-28T00:34:19.164Z,0.40
2023-03-28T00:36:47.100Z,0.75
2023-03-28T00:39:15.319Z,0.80
2023-03-28T00:41:45.565Z,0.55
2023-03-28T00:44:45.574Z,0.75
2023-03-28T00:47:36.747Z,0.60
2023-03-28T00:50:10.914Z,0.52
2023-03-28T00:52:42.642Z,0.40
2023-03-28T00:55:16.589Z,0.60
2023-03-28T00:57:47.398Z,0.75
2023-03-28T01:00:18.726Z,0.50
2023-03-28T01:02:52.350Z,0.50
2023-03-28T01:05:25.895Z,0.60
2023-03-28T01:07:59.283Z,0.40
2023-03-28T01:10:27.528Z,0.30
2023-03-28T01:12:58.693Z,0.57
2023-03-28T01:15:26.750Z,0.70
2023-03-28T01:18:03.265Z,0.50
2023-03-28T01:23:44.799Z,0.90
2023-03-28T01:26:46.108Z,1.63
2023-03-28T01:29:45.144Z,0.50
2023-03-28T01:32:45.210Z,0.85
2023-03-28T01:36:02.151Z,0.57
2023-03-28T01:38:38.220Z,0.88
2023-03-28T01:41:12.517Z,1.00
2023-03-28T01:43:53.394Z,0.75
2023-03-28T01:46:29.118Z,0.80
2023-03-28T01:49:04.712Z,0.90
2023-03-28T01:51:44.403Z,1.10
2023-03-28T01:54:19.295Z,0.93
2023-03-28T01:56:52.731Z,0.90
2023-03-28T01:59:37.099Z,1.08
2023-03-28T02:02:31.138Z,1.40
2023-03-28T02:05:22.342Z,0.70
2023-03-28T02:07:53.569Z,1.00
2023-03-28T02:10:34.078Z,0.70
2023-03-28T02:13:24.167Z,0.90
2023-03-28T02:16:02.474Z,0.82
2023-03-28T02:19:01.895Z,1.00
2023-03-28T02:21:41.227Z,0.60
2023-03-28T02:24:35.176Z,1.02
2023-03-28T02:27:15.010Z,1.20
2023-03-28T02:29:50.300Z,0.88
2023-03-28T02:32:34.073Z,0.50
2023-03-28T02:35:04.488Z,0.90
2023-03-28T02:37:49.463Z,0.90
2023-03-28T02:40:35.828Z,0.70
2023-03-28T02:43:37.909Z,1.00
2023-03-28T02:46:25.783Z,0.73
2023-03-28T02:49:10.607Z,0.57
2023-03-28T02:51:46.478Z,0.75
2023-03-28T02:54:28.563Z,0.50
2023-03-28T02:57:25.482Z,0.50
2023-03-28T02:59:58.804Z,0.80
2023-03-28T03:02:28.987Z,0.80
2023-03-28T03:04:57.889Z,0.57
2023-03-28T03:07:27.044Z,1.00
2023-03-28T03:09:54.951Z,0.60
2023-03-28T03:12:24.709Z,0.60
2023-03-28T03:15:01.122Z,0.80
2023-03-28T03:17:48.147Z,0.50
2023-03-28T03:20:19.499Z,0.77
2023-03-28T03:22:47.402Z,0.90
2023-03-28T03:25:16.132Z,0.90
2023-03-28T03:27:54.541Z,0.73
2023-03-28T03:30:24.062Z,0.90
2023-03-28T03:33:10.615Z,1.08
2023-03-28T03:35:42.062Z,1.40
2023-03-28T03:38:10.264Z,0.80
2023-03-28T03:40:38.108Z,1.23
2023-03-28T03:43:06.360Z,1.63
2023-03-28T03:45:37.867Z,1.08
2023-03-28T03:48:06.311Z,1.20
2023-03-28T03:50:34.264Z,1.10
2023-03-28T03:53:02.376Z,0.90
2023-03-28T03:55:39.871Z,1.45
2023-03-28T03:58:08.354Z,1.27
2023-03-28T04:00:39.839Z,1.00
2023-03-28T04:03:25.113Z,1.17
2023-03-28T04:05:58.057Z,1.48
2023-03-28T04:08:26.369Z,1.25
2023-03-28T04:10:54.352Z,1.50
2023-03-28T04:13:22.326Z,1.60
2023-03-28T04:15:56.782Z,0.90
2023-03-28T04:18:39.563Z,0.95
2023-03-28T04:21:09.672Z,1.80
2023-03-28T04:23:44.537Z,1.48
2023-03-28T04:26:29.367Z,0.93
2023-03-28T04:29:06.660Z,1.17
2023-03-28T04:31:40.105Z,0.75
2023-03-28T04:34:37.051Z,0.77
2023-03-28T04:37:11.882Z,1.20
2023-03-28T04:39:48.712Z,0.90
2023-03-28T04:42:35.705Z,1.23
2023-03-28T04:45:14.578Z,0.88
2023-03-28T04:47:46.067Z,0.80
2023-03-28T04:50:19.047Z,0.98
2023-03-28T04:52:46.986Z,1.20
2023-03-28T04:55:17.291Z,1.10
2023-03-28T04:57:47.174Z,1.13
2023-03-28T05:00:17.120Z,1.10
2023-03-28T05:03:05.610Z,1.25
2023-03-28T05:05:39.974Z,0.82
2023-03-28T05:08:12.816Z,0.75
2023-03-28T05:10:40.917Z,1.20
2023-03-28T05:13:10.117Z,1.17
2023-03-28T05:15:47.859Z,1.23
2023-03-28T05:18:32.230Z,1.10
2023-03-28T05:21:00.588Z,1.00
2023-03-28T05:23:28.583Z,0.95
2023-03-28T05:25:58.918Z,1.20
2023-03-28T05:28:30.418Z,1.13
2023-03-28T05:30:58.464Z,0.95
2023-03-28T05:33:26.839Z,0.93
2023-03-28T05:35:56.439Z,1.02
2023-03-28T05:38:24.584Z,1.15
2023-03-28T05:40:58.589Z,1.35
2023-03-28T05:43:27.064Z,1.00
2023-03-28T05:45:55.155Z,1.50
2023-03-28T05:48:30.003Z,1.63
2023-03-28T05:50:59.470Z,1.45
2023-03-28T05:53:27.503Z,1.35
2023-03-28T05:55:55.388Z,1.73
2023-03-28T05:58:23.236Z,1.27
2023-03-28T06:00:51.485Z,0.95
2023-03-28T06:03:20.118Z,1.20
2023-03-28T06:05:48.489Z,1.08
2023-03-28T06:08:26.992Z,1.27
2023-03-28T06:10:54.905Z,1.30
2023-03-28T06:13:27.765Z,1.10
2023-03-28T06:15:56.241Z,0.95
2023-03-28T06:18:31.926Z,1.00
2023-03-28T06:21:00.322Z,1.13
2023-03-28T06:23:29.890Z,1.20
2023-03-28T06:25:57.992Z,1.80
2023-03-28T06:28:33.043Z,1.13
2023-03-28T06:31:21.950Z,1.17
2023-03-28T06:33:50.769Z,0.65
2023-03-28T06:36:21.358Z,1.13
2023-03-28T06:38:52.314Z,1.30
2023-03-28T06:41:21.719Z,0.93
2023-03-28T06:43:49.935Z,1.10
2023-03-28T06:46:36.364Z,1.30
2023-03-28T06:49:04.384Z,1.35
2023-03-28T06:51:53.171Z,1.38
2023-03-28T06:54:22.805Z,1.10
2023-03-28T06:56:50.689Z,1.40
2023-03-28T06:59:18.894Z,0.90
2023-03-28T07:01:52.265Z,1.02
2023-03-28T07:04:26.769Z,1.27
2023-03-28T07:06:54.757Z,1.00
2023-03-28T07:09:24.136Z,1.13
2023-03-28T07:11:58.421Z,1.00
2023-03-28T07:14:26.520Z,1.27
2023-03-28T07:16:55.054Z,0.50
2023-03-28T07:19:23.392Z,1.42
2023-03-28T07:21:53.604Z,1.00
2023-03-28T07:24:24.461Z,1.20
2023-03-28T07:27:14.650Z,0.95
2023-03-28T07:29:43.910Z,1.40
2023-03-28T07:32:13.266Z,1.40
2023-03-28T07:34:41.163Z,0.82
2023-03-28T07:37:11.219Z,0.70
2023-03-28T07:39:56.532Z,0.83
2023-03-28T07:42:26.967Z,0.85
2023-03-28T07:44:55.158Z,0.80
2023-03-28T07:47:23.093Z,1.17
2023-03-28T07:49:51.240Z,0.90
2023-03-28T07:52:20.705Z,1.25
2023-03-28T07:54:48.574Z,0.75
2023-03-28T07:57:17.977Z,0.73
2023-03-28T07:59:59.576Z,0.82
2023-03-28T08:02:28.689Z,1.25
2023-03-28T08:04:56.672Z,0.80
2023-03-28T08:07:27.110Z,0.77
2023-03-28T08:09:57.782Z,0.90
2023-03-28T08:12:31.510Z,0.95
2023-03-28T08:15:00.626Z,1.15
2023-03-28T08:17:29.502Z,0.60
2023-03-28T08:19:58.111Z,1.05
2023-03-28T08:22:28.652Z,1.30
2023-03-28T08:25:09.326Z,0.88
2023-03-28T08:27:40.257Z,0.77
2023-03-28T08:30:12.675Z,0.70
2023-03-28T08:32:51.066Z,1.10
2023-03-28T08:35:19.581Z,1.23
2023-03-28T08:37:51.341Z,0.60
2023-03-28T08:40:21.740Z,0.70
2023-03-28T08:43:07.428Z,0.90
2023-03-28T08:45:47.850Z,0.93
2023-03-28T08:48:23.759Z,0.77
2023-03-28T08:50:58.461Z,0.73
2023-03-28T08:53:34.466Z,1.13
2023-03-28T08:56:06.186Z,1.10
2023-03-28T08:58:42.599Z,1.17
2023-03-28T09:01:11.440Z,0.82
2023-03-28T09:03:40.424Z,1.10
2023-03-28T09:06:24.867Z,0.70
2023-03-28T09:09:22.317Z,0.82
2023-03-28T09:12:15.791Z,0.88
2023-03-28T09:15:13.681Z,1.15
2023-03-28T09:17:53.930Z,1.20
2023-03-28T09:20:32.051Z,1.13
2023-03-28T09:23:33.773Z,0.70
2023-03-28T09:26:44.775Z,0.70
2023-03-28T09:29:19.543Z,0.68
2023-03-28T09:31:51.989Z,0.60
2023-03-28T09:34:23.100Z,0.47
2023-03-28T09:36:55.757Z,0.60
2023-03-28T09:39:34.030Z,0.95
2023-03-28T09:42:09.278Z,0.82
2023-03-28T09:44:58.985Z,0.70
2023-03-28T09:47:51.557Z,0.88
2023-03-28T09:50:22.969Z,0.98
2023-03-28T09:52:58.694Z,1.00
2023-03-28T09:55:30.906Z,0.60
2023-03-28T09:58:04.877Z,0.50
2023-03-28T10:00:38.578Z,0.65
2023-03-28T10:03:34.935Z,0.60
2023-03-28T10:06:20.111Z,0.70
2023-03-28T10:08:49.274Z,0.57
2023-03-28T10:11:31.757Z,0.70
2023-03-28T10:13:59.720Z,0.60
2023-03-28T10:16:30.974Z,0.50
2023-03-28T10:19:25.474Z,0.80
2023-03-28T10:22:21.881Z,0.40
2023-03-28T10:24:53.297Z,0.50
2023-03-28T10:27:26.288Z,0.70
2023-03-28T10:29:57.207Z,0.60
2023-03-28T10:32:31.948Z,0.88
2023-03-28T10:35:31.448Z,0.63
2023-03-28T10:38:15.589Z,0.60
2023-03-28T10:41:10.826Z,0.45
2023-03-28T10:43:58.395Z,0.77
2023-03-28T10:46:41.217Z,0.77
2023-03-28T10:49:20.774Z,0.60
2023-03-28T10:52:17.739Z,0.43
2023-03-28T10:54:59.247Z,0.50
2023-03-28T10:57:51.251Z,0.40
2023-03-28T11:00:26.719Z,0.80
2023-03-28T11:03:16.765Z,0.40
2023-03-28T11:06:08.142Z,0.70
2023-03-28T11:09:01.740Z,0.40
2023-03-28T11:11:54.607Z,0.73
2023-03-28T11:17:04.974Z,0.43
2023-03-28T11:20:30.009Z,0.90
2023-03-28T11:23:19.058Z,0.90
2023-03-28T11:26:10.472Z,0.70
2023-03-28T11:29:16.699Z,0.75
2023-03-28T11:31:52.162Z,0.70
2023-03-28T11:34:26.526Z,0.40
2023-03-28T11:37:03.529Z,0.70
2023-03-28T11:39:39.231Z,0.52
2023-03-28T11:42:12.212Z,0.55
2023-03-28T11:44:53.593Z,0.50
2023-03-28T11:47:27.278Z,0.60
2023-03-28T11:50:11.658Z,0.43
2023-03-28T11:55:35.595Z,0.50
2023-03-28T11:58:17.689Z,0.40
2023-03-28T12:00:49.963Z,0.55
2023-03-28T12:03:29.002Z,0.50
2023-03-28T12:06:04.801Z,0.57
2023-03-28T12:08:40.296Z,0.47
2023-03-28T12:11:15.907Z,0.75
2023-03-28T12:14:13.875Z,0.60
2023-03-28T12:16:53.201Z,0.50
2023-03-28T12:19:33.228Z,0.47
2023-03-28T12:22:13.037Z,0.53
2023-03-28T12:24:50.673Z,0.70
2023-03-28T12:27:39.492Z,0.43
2023-03-28T12:33:01.535Z,0.57
2023-03-28T12:35:40.853Z,0.40
2023-03-28T12:38:26.585Z,0.50
2023-03-28T12:41:05.640Z,0.40
2023-03-28T12:43:43.398Z,0.35
2023-03-28T12:46:18.018Z,0.50
2023-03-28T12:48:51.039Z,0.80
2023-03-28T12:51:31.885Z,0.70
2023-03-28T12:54:09.245Z,0.60
2023-03-28T12:56:37.772Z,0.60
2023-03-28T12:59:43.641Z,0.55
2023-03-28T13:02:33.396Z,0.60
2023-03-28T13:05:10.281Z,0.43
2023-03-28T13:07:53.737Z,0.60
2023-03-28T13:10:28.702Z,0.47
2023-03-28T13:13:08.670Z,0.50
2023-03-28T13:15:54.995Z,0.38
2023-03-28T13:18:31.423Z,0.60
2023-03-28T13:21:01.371Z,0.40
2023-03-28T13:23:32.900Z,0.50
2023-03-28T13:26:02.762Z,0.60
2023-03-28T13:28:33.858Z,0.57
2023-03-28T13:31:11.263Z,0.45
2023-03-28T13:33:47.402Z,0.60
2023-03-28T13:36:21.252Z,0.40
2023-03-28T13:38:50.828Z,0.70
2023-03-28T13:41:50.071Z,0.90
2023-03-28T13:44:21.064Z,0.80
2023-03-28T13:46:50.070Z,0.85
2023-03-28T13:49:21.840Z,0.98
2023-03-28T13:51:54.670Z,0.88
2023-03-28T13:54:24.024Z,0.70
2023-03-28T13:56:53.447Z,0.70
2023-03-28T13:59:26.289Z,0.60
2023-03-28T14:01:56.480Z,0.60
2023-03-28T14:04:27.666Z,0.60
2023-03-28T14:06:56.500Z,0.57
2023-03-28T14:09:32.363Z,0.65
2023-03-28T14:12:04.557Z,0.50
2023-03-28T14:14:36.067Z,0.50
2023-03-28T14:17:05.941Z,0.70
2023-03-28T14:19:40.734Z,0.50
2023-03-28T14:22:09.536Z,0.73
2023-03-28T14:24:37.988Z,1.00
2023-03-28T14:27:14.421Z,0.73
2023-03-28T14:29:55.409Z,0.60
2023-03-28T14:32:26.978Z,0.40
2023-03-28T14:34:57.272Z,0.40
2023-03-28T14:37:25.710Z,0.43
2023-03-28T14:39:54.626Z,0.43
2023-03-28T14:42:24.368Z,0.60
2023-03-28T14:44:55.035Z,0.73
2023-03-28T14:47:28.998Z,0.60
2023-03-28T14:49:59.204Z,0.70
2023-03-28T14:52:30.739Z,0.70
2023-03-28T14:54:59.344Z,0.40
2023-03-28T14:57:27.867Z,0.52
2023-03-28T14:59:58.449Z,0.52
2023-03-28T15:02:30.480Z,0.60
2023-03-28T15:05:03.556Z,0.60
2023-03-28T15:07:35.571Z,0.50
2023-03-28T15:10:09.155Z,0.50
2023-03-28T15:12:45.812Z,0.70
2023-03-28T15:15:20.487Z,0.80
2023-03-28T15:17:49.695Z,0.50
2023-03-28T15:20:22.214Z,0.60
2023-03-28T15:22:55.040Z,0.50
2023-03-28T15:25:23.641Z,0.50
2023-03-28T15:27:56.626Z,0.40
2023-03-28T15:30:25.489Z,0.50
2023-03-28T15:33:01.436Z,0.50
2023-03-28T15:35:33.984Z,0.80
2023-03-28T15:38:03.841Z,1.10
2023-03-28T15:40:39.222Z,0.50
2023-03-28T15:43:07.948Z,0.50
2023-03-28T15:45:42.172Z,0.68
2023-03-28T15:48:20.128Z,0.70
2023-03-28T15:50:55.214Z,0.38
2023-03-28T15:53:28.066Z,0.93
2023-03-28T15:56:08.573Z,0.43
2023-03-28T15:58:42.720Z,0.80
2023-03-28T16:01:26.093Z,0.60
2023-03-28T16:04:17.144Z,0.80
2023-03-28T16:06:46.687Z,0.60
2023-03-28T16:09:18.133Z,0.40
2023-03-28T16:11:46.658Z,0.50
2023-03-28T16:14:52.744Z,0.70
2023-03-28T16:17:25.741Z,0.80
2023-03-28T16:20:19.505Z,0.88
2023-03-28T16:22:49.127Z,0.50
2023-03-28T16:25:17.277Z,0.70
2023-03-28T16:27:45.546Z,0.60
2023-03-28T16:30:20.532Z,0.60
2023-03-28T16:32:48.746Z,0.85
2023-03-28T16:35:16.909Z,0.57
2023-03-28T16:37:45.492Z,0.80
2023-03-28T16:40:15.619Z,0.80
2023-03-28T16:42:43.547Z,0.90
2023-03-28T16:45:13.662Z,1.00
2023-03-28T16:47:41.671Z,0.77
2023-03-28T16:50:10.751Z,0.70
2023-03-28T16:52:40.517Z,0.77
2023-03-28T16:55:10.212Z,0.75
2023-03-28T16:57:39.719Z,0.52
2023-03-28T17:00:11.709Z,0.90
2023-03-28T17:02:40.009Z,1.00
2023-03-28T17:05:08.516Z,0.65
2023-03-28T17:07:36.905Z,0.80
2023-03-28T17:10:05.407Z,0.73
2023-03-28T17:12:34.287Z,0.70
2023-03-28T17:15:04.016Z,0.60
2023-03-28T17:17:32.043Z,0.80
2023-03-28T17:20:00.586Z,0.50
2023-03-28T17:22:28.489Z,1.00
2023-03-28T17:24:57.345Z,0.73
2023-03-28T17:27:25.235Z,1.00
2023-03-28T17:29:53.133Z,0.90
2023-03-28T17:32:22.406Z,1.05
2023-03-28T17:34:50.685Z,1.10
2023-03-28T17:37:20.383Z,1.23
2023-03-28T17:39:48.582Z,1.08
2023-03-28T17:42:16.804Z,1.30
2023-03-28T17:44:44.934Z,1.20
2023-03-28T17:47:12.886Z,1.40
2023-03-28T17:49:42.150Z,1.40
2023-03-28T17:52:11.104Z,1.63
2023-03-28T17:54:39.005Z,1.35
2023-03-28T17:57:08.250Z,1.27
2023-03-28T17:59:36.312Z,1.70
2023-03-28T18:02:04.574Z,1.63
2023-03-28T18:04:32.904Z,1.58
2023-03-28T18:07:17.907Z,1.60
2023-03-28T18:09:46.179Z,1.50
2023-03-28T18:12:14.517Z,1.25
2023-03-28T18:14:42.727Z,1.38
2023-03-28T18:17:10.692Z,1.65
2023-03-28T18:19:39.559Z,1.50
2023-03-28T18:22:07.891Z,2.00
2023-03-28T18:24:37.164Z,1.63
2023-03-28T18:27:08.214Z,2.30
2023-03-28T18:29:36.156Z,2.00
2023-03-28T18:32:04.221Z,1.52
2023-03-28T18:34:32.643Z,1.67
2023-03-28T18:37:00.549Z,1.90
2023-03-28T18:39:29.199Z,1.95
2023-03-28T18:42:04.466Z,2.30
2023-03-28T18:44:35.666Z,2.78
2023-03-28T18:47:03.899Z,2.75
2023-03-28T18:49:32.103Z,3.13
2023-03-28T18:52:04.479Z,2.22
2023-03-28T18:54:33.044Z,1.97
2023-03-28T18:57:03.403Z,2.47
2023-03-28T18:59:32.413Z,2.13
2023-03-28T19:02:01.002Z,2.88
2023-03-28T19:04:29.093Z,2.63
2023-03-28T19:06:57.538Z,2.92
2023-03-28T19:09:25.842Z,2.88
2023-03-28T19:11:55.058Z,2.50
2023-03-28T19:14:24.417Z,1.90
2023-03-28T19:16:52.416Z,2.50
2023-03-28T19:19:20.363Z,2.20
2023-03-28T19:21:48.297Z,2.30
2023-03-28T19:24:16.452Z,2.72
2023-03-28T19:26:44.315Z,2.50
2023-03-28T19:29:12.433Z,2.67
2023-03-28T19:31:41.986Z,1.90
2023-03-28T19:34:15.649Z,2.33
2023-03-28T19:36:49.968Z,2.40
2023-03-28T19:39:21.333Z,2.55
2023-03-28T19:41:49.360Z,2.40
2023-03-28T19:44:17.337Z,2.20
2023-03-28T19:46:46.735Z,2.20
2023-03-28T19:49:15.614Z,1.98
2023-03-28T19:51:43.499Z,1.50
2023-03-28T19:54:11.448Z,1.85
2023-03-28T19:56:39.369Z,1.50
2023-03-28T19:59:07.329Z,1.80
2023-03-28T20:01:35.396Z,2.10
2023-03-28T20:04:04.916Z,1.52
2023-03-28T20:06:32.900Z,1.67
2023-03-28T20:09:01.151Z,1.55
2023-03-28T20:11:29.499Z,1.50
2023-03-28T20:13:58.234Z,1.33
2023-03-28T20:16:26.271Z,1.50
2023-03-28T20:18:54.830Z,1.70
2023-03-28T20:21:24.069Z,1.77
2023-03-28T20:23:52.038Z,1.50
2023-03-28T20:26:21.639Z,1.90
2023-03-28T20:28:56.734Z,1.70
2023-03-28T20:31:25.024Z,1.55
2023-03-28T20:33:53.414Z,2.03
2023-03-28T20:36:21.350Z,2.55
2023-03-28T20:38:50.619Z,1.98
2023-03-28T20:41:19.480Z,1.80
2023-03-28T20:43:48.111Z,2.03
2023-03-28T20:46:19.508Z,1.75
2023-03-28T20:48:52.107Z,2.10
2023-03-28T20:51:22.553Z,2.47
2023-03-28T20:53:57.018Z,2.35
2023-03-28T20:56:25.611Z,2.47
2023-03-28T20:58:54.276Z,2.08
2023-03-28T21:01:26.387Z,2.20
2023-03-28T21:03:58.170Z,2.22
2023-03-28T21:06:29.428Z,1.83
2023-03-28T21:09:00.555Z,2.55
2023-03-28T21:11:30.080Z,2.30
2023-03-28T21:13:59.775Z,2.40
2023-03-28T21:16:29.125Z,2.63
2023-03-28T21:18:57.580Z,2.33
2023-03-28T21:21:29.670Z,2.40
2023-03-28T21:23:58.982Z,1.92
2023-03-28T21:26:27.267Z,1.90
2023-03-28T21:28:55.180Z,2.28
2023-03-28T21:31:25.891Z,2.53
2023-03-28T21:33:55.467Z,2.78
2023-03-28T21:36:24.115Z,2.28
2023-03-28T21:38:52.230Z,2.63
2023-03-28T21:41:22.433Z,2.78
2023-03-28T21:43:51.813Z,2.53
2023-03-28T21:46:20.729Z,2.80
2023-03-28T21:48:49.968Z,2.55
2023-03-28T21:51:18.827Z,2.50
2023-03-28T21:53:46.986Z,2.45
2023-03-28T21:56:16.364Z,2.50
2023-03-28T21:58:45.983Z,2.92
2023-03-28T22:01:17.518Z,3.10
2023-03-28T22:03:46.672Z,3.33
2023-03-28T22:06:15.460Z,3.22
2023-03-28T22:08:45.121Z,3.28
2023-03-28T22:11:15.063Z,2.72
2023-03-28T22:13:47.225Z,3.22
2023-03-28T22:16:15.524Z,2.83
2023-03-28T22:18:49.529Z,3.15
2023-03-28T22:21:17.595Z,3.08
2023-03-28T22:23:47.373Z,2.67
2023-03-28T22:26:16.399Z,2.92
2023-03-28T22:28:45.993Z,2.95
2023-03-28T22:31:16.766Z,3.55
2023-03-28T22:33:44.831Z,2.85
2023-03-28T22:36:13.344Z,2.53
2023-03-28T22:38:41.343Z,2.95
2023-03-28T22:41:09.227Z,2.65
2023-03-28T22:43:37.431Z,2.90
2023-03-28T22:46:07.777Z,2.88
2023-03-28T22:48:38.261Z,2.90
2023-03-28T22:51:11.463Z,2.83
2023-03-28T22:56:08.522Z,2.20
2023-03-28T22:58:36.986Z,2.65
2023-03-28T23:01:06.963Z,2.67
2023-03-28T23:03:34.777Z,2.78
2023-03-28T23:06:06.093Z,2.30
2023-03-28T23:08:34.145Z,2.70
2023-03-28T23:11:02.624Z,2.72
2023-03-28T23:13:30.649Z,3.00
2023-03-28T23:15:58.574Z,2.42
2023-03-28T23:18:27.932Z,2.58
2023-03-28T23:20:56.525Z,2.22
2023-03-28T23:23:24.396Z,2.35
2023-03-28T23:25:52.330Z,2.92
2023-03-28T23:28:20.448Z,2.75
2023-03-28T23:30:48.373Z,3.03
2023-03-28T23:33:18.582Z,2.40
2023-03-28T23:35:48.409Z,3.10
2023-03-28T23:38:17.490Z,2.10
2023-03-28T23:40:46.114Z,2.22
2023-03-28T23:43:14.387Z,3.40
2023-03-28T23:45:43.376Z,2.33
2023-03-28T23:48:11.506Z,1.98
2023-03-28T23:50:39.744Z,2.70
2023-03-28T23:53:09.387Z,2.50
2023-03-28T23:55:37.423Z,2.15
2023-03-28T23:58:05.350Z,2.10
